ADDS METAR Data INFO
IDs: Format: Raw Decoded Include TAF

Data at: 1200 UTC 21 Jun 2018

KCTJ 211135Z AUTO 00000KT 10SM CLR 24/21 A2997 RMK AO2 T02350211
KCTJ 211115Z AUTO 00000KT 10SM CLR 23/21 A2996 RMK AO2 T02260211
KCTJ 211055Z AUTO 00000KT 10SM CLR 22/21 A2996 RMK AO2 T02170207
KCTJ 211035Z AUTO 00000KT 10SM CLR 22/21 A2996 RMK AO2 T02150206
KCTJ 211015Z AUTO 00000KT 10SM CLR 22/21 A2995 RMK AO2 T02150206
KCTJ 210955Z AUTO 00000KT 10SM CLR 22/21 A2995 RMK AO2 T02200207
KCTJ 210935Z AUTO 00000KT 10SM CLR 22/21 A2995 RMK AO2 T02150205
KCTJ 210915Z AUTO 00000KT 10SM CLR 21/21 A2995 RMK AO2 T02140206
KCTJ 210855Z AUTO 00000KT 10SM CLR 22/21 A2995 RMK AO2 T02160207
KCTJ 210835Z AUTO 00000KT 10SM CLR 22/21 A2995 RMK AO2 T02200208
KCTJ 210815Z AUTO 00000KT 10SM CLR 22/21 A2995 RMK AO2 T02200210
KCTJ 210755Z AUTO 00000KT 10SM CLR 22/21 A2996 RMK AO2 T02220211
KCTJ 210735Z AUTO 00000KT 10SM SCT120 22/21 A2996 RMK AO2 T02230211
KCTJ 210715Z AUTO 00000KT 10SM SCT120 23/21 A2996 RMK AO2 T02250212
KCTJ 210655Z AUTO 00000KT 10SM BKN120 23/22 A2997 RMK AO2 T02320215
KCTJ 210635Z AUTO 00000KT 10SM CLR 23/21 A2997 RMK AO2 T02330212
KCTJ 210615Z AUTO 00000KT 10SM SCT120 23/22 A2998 RMK AO2 T02330215
KCTJ 210555Z AUTO 00000KT 10SM -RA SCT080 SCT110 23/22 A2998 RMK AO2 T02330217 10284 20233 403190220
KCTJ 210535Z AUTO 00000KT 10SM SCT120 23/22 A2999 RMK AO2 T02330216
KCTJ 210515Z AUTO 00000KT 10SM CLR 23/22 A2999 RMK AO2 T02330215
KCTJ 210455Z AUTO 00000KT 10SM CLR 24/22 A2999 RMK AO2 T02360216
KCTJ 210435Z AUTO 00000KT 10SM CLR 24/22 A3000 RMK AO2 T02350215
KCTJ 210415Z AUTO 00000KT 10SM CLR 24/22 A3000 RMK AO2 T02370215
KCTJ 210355Z AUTO 00000KT 10SM CLR 24/22 A3001 RMK AO2 T02400216
KCTJ 210335Z AUTO 00000KT 10SM CLR 24/22 A3001 RMK AO2 T02390217
KCTJ 210315Z AUTO 00000KT 10SM CLR 24/22 A3001 RMK AO2 T02420217
KCTJ 210255Z AUTO 00000KT 10SM CLR 24/22 A3001 RMK AO2 T02420218
KCTJ 210235Z AUTO 00000KT 10SM CLR 25/22 A3000 RMK AO2 T02450215
KCTJ 210215Z AUTO 00000KT 10SM CLR 24/22 A3000 RMK AO2 T02430219
KCTJ 210155Z AUTO 00000KT 10SM CLR 25/22 A2999 RMK AO2 T02500217
KCTJ 210135Z AUTO 00000KT 10SM SCT055 SCT065 SCT090 25/22 A2998 RMK AO2 T02500220
KCTJ 210115Z AUTO 00000KT 10SM SCT060 SCT065 SCT080 25/22 A2998 RMK AO2 T02500220
KCTJ 210055Z AUTO 00000KT 10SM CLR 26/22 A2998 RMK AO2 T02570222
KCTJ 210035Z AUTO 00000KT 10SM CLR 26/22 A2998 RMK AO2 T02640222
KCTJ 210015Z AUTO 00000KT 10SM CLR 27/22 A2998 RMK AO2 T02730219
KCTJ 202355Z AUTO 00000KT 10SM CLR 29/21 A2997 RMK AO2 T02850213 10319 20285
KCTJ 202335Z AUTO 00000KT 10SM CLR 29/21 A2997 RMK AO2 T02910205
KCTJ 202315Z AUTO 00000KT 10SM CLR 29/21 A2996 RMK AO2 T02910206
KCTJ 202255Z AUTO 30004KT 10SM CLR 30/20 A2996 RMK AO2 T02970199
KCTJ 202235Z AUTO 32005KT 10SM CLR 30/20 A2996 RMK AO2 T03010203
KCTJ 202215Z AUTO 30004KT 10SM CLR 30/20 A2997 RMK AO2 T03030201
KCTJ 202155Z AUTO 33005KT 10SM SCT070 30/20 A2997 RMK AO2 T03040200
KCTJ 202135Z AUTO 34007KT 10SM CLR 31/20 A2998 RMK AO2 T03100201
KCTJ 202115Z AUTO 35006KT 10SM SCT049 SCT060 SCT070 31/20 A2998 RMK AO2 T03110199
KCTJ 202055Z AUTO 32005KT 10SM SCT070 30/19 A2998 RMK AO2 T03010190
KCTJ 202035Z AUTO 32005KT 10SM CLR 32/18 A2998 RMK AO2 T03160182
KCTJ 202015Z AUTO 33004KT 10SM CLR 32/18 A2999 RMK AO2 T03160179
KCTJ 201955Z AUTO 31006KT 10SM CLR 32/18 A3000 RMK AO2 T03160179
KCTJ 201935Z AUTO 35004KT 10SM CLR 32/18 A3001 RMK AO2 T03170176
KCTJ 201915Z AUTO 31005KT 10SM CLR 32/17 A3001 RMK AO2 T03150172
KCTJ 201855Z AUTO 35006KT 10SM CLR 31/18 A3002 RMK AO2 T03130183
KCTJ 201835Z AUTO 34008KT 10SM CLR 31/18 A3002 RMK AO2 T03110177
KCTJ 201815Z AUTO 30005KT 10SM CLR 31/17 A3003 RMK AO2 T03070174
KCTJ 201755Z AUTO 30005KT 10SM CLR 31/18 A3003 RMK AO2 T03070178 10307 20240
KCTJ 201735Z AUTO 34009KT 10SM CLR 30/18 A3004 RMK AO2 T03040181
KCTJ 201715Z AUTO 32006KT 290V350 10SM CLR 30/19 A3004 RMK AO2 T03020186
KCTJ 201655Z AUTO 32008KT 290V350 10SM CLR 30/18 A3005 RMK AO2 T03020183
KCTJ 201635Z AUTO 35009KT 10SM CLR 30/18 A3005 RMK AO2 T03040179
KCTJ 201615Z AUTO 36009KT 10SM CLR 30/18 A3005 RMK AO2 T03030180
KCTJ 201555Z AUTO 32006KT 10SM CLR 30/18 A3005 RMK AO2 T03030179
KCTJ 201535Z AUTO 34008KT 10SM CLR 30/19 A3005 RMK AO2 T03000186
KCTJ 201515Z AUTO 33009KT 10SM CLR 30/19 A3005 RMK AO2 T02950190
KCTJ 201455Z AUTO 34005KT 10SM CLR 29/19 A3005 RMK AO2 T02900193
KCTJ 201435Z AUTO 36007KT 10SM CLR 29/20 A3005 RMK AO2 T02870201
KCTJ 201410Z AUTO 01005KT 10SM CLR 28/20 A3005 RMK AO2 T02800203
KCTJ 201355Z AUTO 35006KT 10SM CLR 28/21 A3006 RMK AO2 T02750210
KCTJ 201335Z AUTO 35006KT 10SM CLR 27/21 A3006 RMK AO2 T02700209
KCTJ 201315Z AUTO 33007KT 10SM CLR 26/21 A3005 RMK AO2 T02630206
KCTJ 201255Z AUTO 33005KT 10SM CLR 26/21 A3005 RMK AO2 T02600209
KCTJ 201235Z AUTO 34005KT 10SM CLR 25/21 A3005 RMK AO2 T02510206
KCTJ 201215Z AUTO 34004KT 10SM CLR 24/20 A3005 RMK AO2 T02420204
KCTJ 201155Z AUTO 33004KT 10SM CLR 24/21 A3004 RMK AO2 T02400205 10240 20220
KCTJ 201135Z AUTO 33003KT 10SM CLR 23/20 A3004 RMK AO2 T02320200
KCTJ 201115Z AUTO 34003KT 10SM CLR 23/20 A3004 RMK AO2 T02250200
KCTJ 201055Z AUTO 34003KT 10SM CLR 22/20 A3004 RMK AO2 T02220198
KCTJ 201035Z AUTO 00000KT 10SM CLR 22/20 A3004 RMK AO2 T02220198
KCTJ 201015Z AUTO 33004KT 10SM CLR 22/20 A3003 RMK AO2 T02210199
KCTJ 200955Z AUTO 34004KT 10SM CLR 22/20 A3003 RMK AO2 T02230199
KCTJ 200935Z AUTO 34004KT 10SM CLR 22/20 A3003 RMK AO2 T02210200
KCTJ 200915Z AUTO 34003KT 10SM CLR 22/20 A3002 RMK AO2 T02220200
KCTJ 200855Z AUTO 00000KT 10SM CLR 23/20 A3003 RMK AO2 T02250201
KCTJ 200835Z AUTO 31005KT 10SM CLR 23/20 A3003 RMK AO2 T02280201
KCTJ 200815Z AUTO 32003KT 10SM CLR 23/20 A3002 RMK AO2 T02260201
KCTJ 200755Z AUTO 32004KT 10SM CLR 23/20 A3003 RMK AO2 T02300202
KCTJ 200735Z AUTO 31004KT 10SM CLR 23/20 A3004 RMK AO2 T02300202
KCTJ 200715Z AUTO 32005KT 10SM CLR 23/20 A3004 RMK AO2 T02330201
KCTJ 200655Z AUTO 32004KT 10SM CLR 24/20 A3004 RMK AO2 T02350200
KCTJ 200635Z AUTO 31006KT 10SM CLR 24/20 A3005 RMK AO2 T02370200
KCTJ 200615Z AUTO 32006KT 10SM CLR 24/20 A3004 RMK AO2 T02370200
KCTJ 200555Z AUTO 31005KT 10SM CLR 24/20 A3005 RMK AO2 T02380201 10297 20238 403210222
KCTJ 200535Z AUTO 31006KT 10SM CLR 24/20 A3005 RMK AO2 T02400201
KCTJ 200515Z AUTO 31004KT 10SM CLR 24/20 A3005 RMK AO2 T02400202
KCTJ 200455Z AUTO 32003KT 10SM CLR 24/20 A3005 RMK AO2 T02400204
KCTJ 200435Z AUTO 31004KT 10SM CLR 24/21 A3005 RMK AO2 T02420205
KCTJ 200415Z AUTO 31004KT 10SM CLR 25/21 A3006 RMK AO2 T02460205
KCTJ 200355Z AUTO 31005KT 10SM CLR 25/21 A3005 RMK AO2 T02460206
KCTJ 200335Z AUTO 32004KT 10SM CLR 25/21 A3005 RMK AO2 T02470208
KCTJ 200315Z AUTO 31004KT 10SM CLR 25/21 A3005 RMK AO2 T02510207
KCTJ 200255Z AUTO 32004KT 10SM CLR 26/21 A3005 RMK AO2 T02550208
KCTJ 200235Z AUTO 31004KT 10SM CLR 26/21 A3005 RMK AO2 T02590208
KCTJ 200215Z AUTO 31004KT 10SM CLR 26/21 A3005 RMK AO2 T02600210
KCTJ 200155Z AUTO 31004KT 10SM CLR 26/21 A3004 RMK AO2 T02630211
KCTJ 200135Z AUTO 32004KT 10SM CLR 27/21 A3004 RMK AO2 T02690214
KCTJ 200115Z AUTO 32006KT 10SM CLR 27/22 A3003 RMK AO2 T02710216
KCTJ 200055Z AUTO 30003KT 10SM CLR 27/23 A3002 RMK AO2 T02670225
KCTJ 200035Z AUTO 30003KT 10SM CLR 28/23 A3002 RMK AO2 T02750225
KCTJ 200015Z AUTO 00000KT 10SM CLR 28/23 A3003 RMK AO2 T02820226